Tuesday, July 26, 2016, 9:05 PM EDT

KPHF, Williamsburg International Airport

Location: Newport News, VA, United States Lat: 37.133
Local Time: 9:05 PM EDT ( 1:05 GMT) Lon: -76.5
Time Zone: US/Eastern Elev: 42 ft

Show me the last for .
Show Decoded

2016-07-26 19:54 METAR KPHF 262354Z 27007KT 10SM CLR 28/23 A2992 RMK AO2 SLP132 T02780228 10339
                 20278 50005 =
2016-07-26 19:33 METAR KPHF 262333Z 23008KT 10SM FEW060 29/25 A2993 RMK AO2 LTG DSNT SW T02890250
                 =
2016-07-26 18:54 METAR KPHF 262254Z 15007KT 10SM VCTS SCT040 31/25 A2993 RMK AO2 LTG DSNT SW AND
                 W SLP136 T03060250 =
2016-07-26 18:24 METAR KPHF 262224Z 12008KT 10SM VCTS CLR 31/26 A2992 RMK AO2 LTG DSNT SE-W
                 T03060256 =
2016-07-26 17:54 METAR KPHF 262154Z 11008KT 10SM CLR 31/26 A2991 RMK AO2 LTG DSNT S SLP127
                 T03110256 =
2016-07-26 16:54 METAR KPHF 262054Z 10007KT 10SM CLR 32/26 A2991 RMK AO2 LTG DSNT SE AND S SLP128
                 T03220256 56011 =
2016-07-26 16:14 METAR KPHF 262014Z 08010KT 10SM CLR 33/26 A2992 RMK AO2 T03280256 =
2016-07-26 15:54 METAR KPHF 261954Z 07010KT 10SM VCTS FEW050 SCT070 BKN110 33/26 A2992 RMK AO2
                 LTG DSNT ALQDS SLP130 T03280256 =
2016-07-26 15:35 METAR KPHF 261935Z 04006KT 10SM VCTS SCT047 BKN055 BKN075 32/25 A2992 RMK AO2
                 LTG DSNT N T03170250 =
2016-07-26 14:54 METAR KPHF 261854Z 10006KT 10SM CLR 33/26 A2993 RMK AO2 LTG DSNT N SLP135
                 T03280256 =
2016-07-26 13:54 METAR KPHF 261754Z 10SM FEW044 33/26 A2994 RMK AO2 SLP138 T03330256 10350 20278
                 58006 =
2016-07-26 12:54 METAR KPHF 261654Z 02005KT 10SM CLR 34/26 A2995 RMK AO2 SLP141 T03390256 =
2016-07-26 11:54 METAR KPHF 261554Z 03003KT 10SM CLR 33/26 A2996 RMK AO2 SLP145 T03280256 =
2016-07-26 10:54 METAR KPHF 261454Z VRB06KT 10SM CLR 31/25 A2996 RMK AO2 SLP145 T03110250 51003 =
2016-07-26 09:54 METAR KPHF 261354Z 30009KT 10SM CLR 31/25 A2996 RMK AO2 SLP143 T03060250 =
2016-07-26 08:54 METAR KPHF 261254Z 27009KT 10SM CLR 29/24 A2996 RMK AO2 SLP144 T02890244 =
2016-07-26 07:54 METAR KPHF 261154Z 26009KT 10SM CLR 28/24 A2995 RMK AO2 SLP142 T02780244 10283
                 20267 50007 =
2016-07-26 06:54 METAR KPHF 261054Z 26010KT 10SM CLR 27/24 A2995 RMK AO2 SLP142 T02670244 =
2016-07-26 05:54 METAR KPHF 260954Z 24009KT 10SM CLR 27/24 A2994 RMK AO2 SLP138 T02720244 =
2016-07-26 04:54 METAR KPHF 260854Z 24008KT 10SM CLR 27/24 A2993 RMK AO2 SLP134 T02720244 50002 =
2016-07-26 03:54 METAR KPHF 260754Z 23008KT 10SM CLR 28/24 A2993 RMK AO2 SLP135 T02780244 =
2016-07-26 02:54 METAR KPHF 260654Z 23011KT 10SM CLR 28/24 A2993 RMK AO2 SLP134 T02780244 =
2016-07-26 01:54 METAR KPHF 260554Z 22011KT 10SM CLR 28/24 A2992 RMK AO2 SLP133 T02830244 10322
                 20283 58005 =
2016-07-26 00:54 METAR KPHF 260454Z 22016G20KT 10SM CLR 29/25 A2993 RMK AO2 SLP135 T02890250
                 403560261 =
2016-07-25 23:54 METAR KPHF 260354Z 21012KT 10SM CLR 29/25 A2994 RMK AO2 SLP139 T02940250 =
2016-07-25 22:54 METAR KPHF 260254Z 21009KT 10SM CLR 30/24 A2994 RMK AO2 SLP137 T03000244 51009 =
2016-07-25 21:54 METAR KPHF 260154Z AUTO 21011KT 10SM CLR 31/24 A2994 RMK AO2 SLP137 T03060244 =

Support USWX by starting your Amazon purchase here.